Aérodrome :
LOGIN :

S'inscrire | Disclaimer

   EN    FR    IT 

 










Légende :    VFR   VFR Marginal   IFR   IFR Intensif   IFR Très Intensif
Visi : 
Plafond : 
>= 8 km
>= 3000ft
5 à 8 km
1000 à 3000 ft
1500m à 5 km
500 à 1000 ft
800 à 1500m
200 à 500 ft
< 800m
< 200 ft
Symboles :   Orages  Brouillard  Fortes neiges  Fortes précipitations  Vent > 20 kt
SIGMETs :   Divers  Orages  Givrage  Turbulence  Onde Orograph.  Cendres Volcan.






- Altitude de l'aérodrome : 319 ft


EIME - Casement Air Base

DERNIER METAR :
  • 190900Z 27009KT 9999 -RA FEW006 BKN007 BKN018 07/07 Q1000

METARs EXPIRÉS :
  • 190800Z 26010KT 9999 FEW005 SCT037 BKN045 07/07 Q0999

TAF TAF EIME
Valide du 19 à 09h jusqu'au 19 à 18h UTC


190800Z 1909/1918 26010KT 9999 SCT012 BKN040
TEMPO 1909/1911 -SHRA BKN012 SCT018CB
PROB30
TEMPO 1909/1911 4000 BKN007
BECMG 1910/1912 34009KT
TEMPO 1911/1918 -SHRA SCT018CB



MET'MAP, la Météo Aéronautique d'un coup d'oeil ! - Copyright ORBIFLY Décembre 2007 - Disclaimer

ORBIFLY MET'MAP TEAM :

Programmation & Développement : Alexandra Zaïnal
Conception & Développement : Baudouin d'Aumeries
Co-Programmation & Développement : Marc-Olivier Méhu
Soutien technique & logistique : Manuel Goepfert

Contact : metmap@orbifly.com




SOURCES & CREDITS :

   NOAA